Estación de Odessa

Ultimos registro cada 15 minutos 60
Estación Fecha / Hora Temperatura Humedad Lluvia Velocidad Dirección Radiación Presion
60 Odessa 03-05-2026 15:00 15,4 75 0 0,4 128 199 1019,4
59 Odessa 03-05-2026 14:45 15,1 82 0 0 182 171 1019,7
58 Odessa 03-05-2026 14:30 15,1 82 0 0,9 124 134 1019,7
57 Odessa 03-05-2026 14:15 15 80 0 0 173 128 1019,8
56 Odessa 03-05-2026 14:00 15 78 0 1,3 236 123 1019,9
55 Odessa 03-05-2026 13:45 15,1 76 0 0 110 116 1019,8
54 Odessa 03-05-2026 13:30 15,2 74 0 0,4 125 113 1020,3
53 Odessa 03-05-2026 13:15 15,2 74 0 0,4 177 169 1020,3
52 Odessa 03-05-2026 13:00 15,2 74 0 0,9 216 172 1020,2
51 Odessa 03-05-2026 12:45 15,3 74 0 0,4 246 172 1020,3
50 Odessa 03-05-2026 12:30 15,2 73 0 0,4 319 162 1020
49 Odessa 03-05-2026 12:15 14,9 76 0 0,4 349 234 1020,1
48 Odessa 03-05-2026 12:00 14,7 76 0 0 20 221 1020,4
47 Odessa 03-05-2026 11:45 14,4 78 0 0 33 271 1020,3
46 Odessa 03-05-2026 11:30 14,1 78 0 0,9 237 232 1020,9
45 Odessa 03-05-2026 11:15 13,9 78 0 0,4 275 193 1020,9
44 Odessa 03-05-2026 11:00 14,1 79 0 0,9 247 220 1021
43 Odessa 03-05-2026 10:45 14,2 79 0 0,4 285 244 1020,7
42 Odessa 03-05-2026 10:30 13,8 79 0 0 41 332 1020,6
41 Odessa 03-05-2026 10:15 13 82 0 0 72 294 1020,7
40 Odessa 03-05-2026 10:00 12 87 0 0 321 480 1020,6
39 Odessa 03-05-2026 09:45 10,3 92 0 0 8 250 1020,8
38 Odessa 03-05-2026 09:30 9,6 93 0 0 8 176 1020,7
37 Odessa 03-05-2026 09:15 9 95 0 0 8 171 1020,8
36 Odessa 03-05-2026 09:00 8,1 94 0 0 8 230 1020,5
35 Odessa 03-05-2026 08:45 7,6 95 0 0 93 102 1020,4
34 Odessa 03-05-2026 08:30 6,7 95 0 0 93 171 1020,3
33 Odessa 03-05-2026 08:15 5,6 95 0 0 93 109 1020,2
32 Odessa 03-05-2026 08:00 4,2 94 0 0 93 19 1019,9
31 Odessa 03-05-2026 07:45 4 93 0 0 105 11 1019,9
30 Odessa 03-05-2026 07:30 4,6 94 0 0 105 0 1019,7
29 Odessa 03-05-2026 07:15 4,7 94 0 0 68 0 1019,4
28 Odessa 03-05-2026 06:45 4,7 95 0,2 0,4 67 0 1018,9
27 Odessa 03-05-2026 06:30 3,3 94 0 0,9 73 0 1019
26 Odessa 03-05-2026 06:15 2,9 93 0 0 55 0 1019
25 Odessa 03-05-2026 06:00 3,4 93 0 0 81 0 1019
24 Odessa 03-05-2026 05:45 4,2 93 0 0 81 0 1018,7
23 Odessa 03-05-2026 05:30 4,6 94 0 0 81 0 1018,6
22 Odessa 03-05-2026 05:15 4,7 94 0 0,4 65 0 1018,7
21 Odessa 03-05-2026 05:00 4,6 95 0 0,9 60 0 1019,2
20 Odessa 03-05-2026 04:45 3,4 94 0 0 57 0 1019,2
19 Odessa 03-05-2026 04:30 3,3 94 0 0 114 0 1019,4
18 Odessa 03-05-2026 04:15 3,5 93 0 0 125 0 1019,5
17 Odessa 03-05-2026 04:00 3,9 93 0 0 125 0 1019,3
16 Odessa 03-05-2026 03:45 4,4 93 0 0 120 0 1019,6
15 Odessa 03-05-2026 03:30 4,8 94 0 0 120 0 1019,7
14 Odessa 03-05-2026 03:15 4,7 94 0 0 120 0 1019,7
13 Odessa 03-05-2026 03:00 4,8 94 0 0 120 0 1019,9
12 Odessa 03-05-2026 02:45 5,2 94 0 0 120 0 1020
11 Odessa 03-05-2026 02:30 5,3 94 0 0 120 0 1019,9
10 Odessa 03-05-2026 02:15 5,3 95 0 0 120 0 1019,7
9 Odessa 03-05-2026 02:00 4,7 94 0 0 114 0 1019,7
8 Odessa 03-05-2026 01:45 4,7 94 0 0 112 0 1019,9
7 Odessa 03-05-2026 01:30 4,6 93 0 0 112 0 1019,9
6 Odessa 03-05-2026 01:15 5,2 93 0 0 112 0 1019,7
5 Odessa 03-05-2026 01:00 5,4 93 0 0 112 0 1019,4
4 Odessa 03-05-2026 00:45 5,9 94 0 0 112 0 1019,6
3 Odessa 03-05-2026 00:30 5,9 94 0 0 112 0 1019,7
2 Odessa 03-05-2026 00:15 5,9 93 0 0 112 0 1019,7
1 Odessa 03-05-2026 00:00 6,3 93 0 0,4 112 0 1019,7